sensor_id;sensor_type;location;lat;lon;timestamp;temperature;humidity
5834;DHT22;2943;48.012;10.968;2022-12-07T00:00:45;2.20;99.90
5834;DHT22;2943;48.012;10.968;2022-12-07T00:03:12;2.20;99.90
5834;DHT22;2943;48.012;10.968;2022-12-07T00:05:39;2.30;99.90
5834;DHT22;2943;48.012;10.968;2022-12-07T00:08:06;2.30;99.90
5834;DHT22;2943;48.012;10.968;2022-12-07T00:10:34;2.30;99.90
5834;DHT22;2943;48.012;10.968;2022-12-07T00:13:01;2.30;99.90
5834;DHT22;2943;48.012;10.968;2022-12-07T00:15:28;2.30;99.90
5834;DHT22;2943;48.012;10.968;2022-12-07T00:17:55;2.30;99.90
5834;DHT22;2943;48.012;10.968;2022-12-07T00:20:22;2.30;99.90
5834;DHT22;2943;48.012;10.968;2022-12-07T00:22:49;2.20;99.90
5834;DHT22;2943;48.012;10.968;2022-12-07T00:25:16;2.20;99.90
5834;DHT22;2943;48.012;10.968;2022-12-07T00:27:44;2.20;99.90
5834;DHT22;2943;48.012;10.968;2022-12-07T00:30:11;2.20;99.90
5834;DHT22;2943;48.012;10.968;2022-12-07T00:32:38;2.20;99.90
5834;DHT22;2943;48.012;10.968;2022-12-07T00:35:05;2.20;99.90
5834;DHT22;2943;48.012;10.968;2022-12-07T00:37:32;2.20;99.90
5834;DHT22;2943;48.012;10.968;2022-12-07T00:39:59;2.20;99.90
5834;DHT22;2943;48.012;10.968;2022-12-07T00:42:26;2.20;99.90
5834;DHT22;2943;48.012;10.968;2022-12-07T00:44:55;2.20;99.90
5834;DHT22;2943;48.012;10.968;2022-12-07T00:47:22;2.20;99.90
5834;DHT22;2943;48.012;10.968;2022-12-07T00:49:48;2.20;99.90
5834;DHT22;2943;48.012;10.968;2022-12-07T00:52:15;2.20;99.90
5834;DHT22;2943;48.012;10.968;2022-12-07T00:54:42;2.20;99.90
5834;DHT22;2943;48.012;10.968;2022-12-07T00:57:09;2.20;99.90
5834;DHT22;2943;48.012;10.968;2022-12-07T00:59:36;2.20;99.90
5834;DHT22;2943;48.012;10.968;2022-12-07T01:02:04;2.30;99.90
5834;DHT22;2943;48.012;10.968;2022-12-07T01:04:33;2.30;99.90
5834;DHT22;2943;48.012;10.968;2022-12-07T01:07:00;2.30;99.90
5834;DHT22;2943;48.012;10.968;2022-12-07T01:09:27;2.30;99.90
5834;DHT22;2943;48.012;10.968;2022-12-07T01:11:54;2.40;99.90
5834;DHT22;2943;48.012;10.968;2022-12-07T01:14:21;2.30;99.90
5834;DHT22;2943;48.012;10.968;2022-12-07T01:16:48;2.30;99.90
5834;DHT22;2943;48.012;10.968;2022-12-07T01:19:16;2.30;99.90
5834;DHT22;2943;48.012;10.968;2022-12-07T01:21:43;2.30;99.90
5834;DHT22;2943;48.012;10.968;2022-12-07T01:24:10;2.20;99.90
5834;DHT22;2943;48.012;10.968;2022-12-07T01:26:37;2.20;99.90
5834;DHT22;2943;48.012;10.968;2022-12-07T01:29:04;2.10;99.90
5834;DHT22;2943;48.012;10.968;2022-12-07T01:31:32;2.10;99.90
5834;DHT22;2943;48.012;10.968;2022-12-07T01:33:59;2.00;99.90
5834;DHT22;2943;48.012;10.968;2022-12-07T01:36:29;2.00;99.90
5834;DHT22;2943;48.012;10.968;2022-12-07T01:38:58;2.00;99.90
5834;DHT22;2943;48.012;10.968;2022-12-07T01:41:27;2.00;99.90
5834;DHT22;2943;48.012;10.968;2022-12-07T01:44:13;2.00;99.90
5834;DHT22;2943;48.012;10.968;2022-12-07T01:46:41;2.00;99.90
5834;DHT22;2943;48.012;10.968;2022-12-07T01:49:10;2.00;99.90
5834;DHT22;2943;48.012;10.968;2022-12-07T01:51:40;2.00;99.90
5834;DHT22;2943;48.012;10.968;2022-12-07T01:54:10;2.00;99.90
5834;DHT22;2943;48.012;10.968;2022-12-07T01:56:38;2.00;99.90
5834;DHT22;2943;48.012;10.968;2022-12-07T01:59:06;2.00;99.90
5834;DHT22;2943;48.012;10.968;2022-12-07T02:01:34;2.00;99.90
5834;DHT22;2943;48.012;10.968;2022-12-07T02:04:01;2.10;99.90
5834;DHT22;2943;48.012;10.968;2022-12-07T02:06:29;2.10;99.90
5834;DHT22;2943;48.012;10.968;2022-12-07T02:08:57;2.10;99.90
5834;DHT22;2943;48.012;10.968;2022-12-07T02:11:24;2.10;99.90
5834;DHT22;2943;48.012;10.968;2022-12-07T02:13:51;2.10;99.90
5834;DHT22;2943;48.012;10.968;2022-12-07T02:16:27;2.10;99.90
5834;DHT22;2943;48.012;10.968;2022-12-07T02:19:23;2.20;99.90
5834;DHT22;2943;48.012;10.968;2022-12-07T02:21:57;2.20;99.90
5834;DHT22;2943;48.012;10.968;2022-12-07T02:24:47;2.20;99.90
5834;DHT22;2943;48.012;10.968;2022-12-07T02:27:32;2.30;99.90
5834;DHT22;2943;48.012;10.968;2022-12-07T02:30:05;2.20;99.90
5834;DHT22;2943;48.012;10.968;2022-12-07T02:32:41;2.20;99.90
5834;DHT22;2943;48.012;10.968;2022-12-07T02:35:11;2.30;99.90
5834;DHT22;2943;48.012;10.968;2022-12-07T02:37:42;2.20;99.90
5834;DHT22;2943;48.012;10.968;2022-12-07T02:40:19;2.30;99.90
5834;DHT22;2943;48.012;10.968;2022-12-07T02:42:50;2.20;99.90
5834;DHT22;2943;48.012;10.968;2022-12-07T02:45:22;2.20;99.90
5834;DHT22;2943;48.012;10.968;2022-12-07T02:47:51;2.20;99.90
5834;DHT22;2943;48.012;10.968;2022-12-07T02:50:20;2.20;99.90
5834;DHT22;2943;48.012;10.968;2022-12-07T02:52:47;2.20;99.90
5834;DHT22;2943;48.012;10.968;2022-12-07T02:55:17;2.20;99.90
5834;DHT22;2943;48.012;10.968;2022-12-07T02:58:05;2.20;99.90
5834;DHT22;2943;48.012;10.968;2022-12-07T03:00:40;2.20;99.90
5834;DHT22;2943;48.012;10.968;2022-12-07T03:03:10;2.20;99.90
5834;DHT22;2943;48.012;10.968;2022-12-07T03:06:10;2.30;99.90
5834;DHT22;2943;48.012;10.968;2022-12-07T03:08:47;2.20;99.90
5834;DHT22;2943;48.012;10.968;2022-12-07T03:11:21;2.20;99.90
5834;DHT22;2943;48.012;10.968;2022-12-07T03:13:56;2.20;99.90
5834;DHT22;2943;48.012;10.968;2022-12-07T03:16:30;2.20;99.90
5834;DHT22;2943;48.012;10.968;2022-12-07T03:19:00;2.20;99.90
5834;DHT22;2943;48.012;10.968;2022-12-07T03:21:32;2.20;99.90
5834;DHT22;2943;48.012;10.968;2022-12-07T03:24:04;2.20;99.90
5834;DHT22;2943;48.012;10.968;2022-12-07T03:26:34;2.20;99.90
5834;DHT22;2943;48.012;10.968;2022-12-07T03:29:06;2.20;99.90
5834;DHT22;2943;48.012;10.968;2022-12-07T03:31:39;2.20;99.90
5834;DHT22;2943;48.012;10.968;2022-12-07T03:34:10;2.30;99.90
5834;DHT22;2943;48.012;10.968;2022-12-07T03:36:41;2.20;99.90
5834;DHT22;2943;48.012;10.968;2022-12-07T03:39:16;2.20;99.90
5834;DHT22;2943;48.012;10.968;2022-12-07T03:41:43;2.20;99.90
5834;DHT22;2943;48.012;10.968;2022-12-07T03:44:11;2.20;99.90
5834;DHT22;2943;48.012;10.968;2022-12-07T03:46:43;2.10;99.90
5834;DHT22;2943;48.012;10.968;2022-12-07T03:49:15;2.10;99.90
5834;DHT22;2943;48.012;10.968;2022-12-07T03:51:50;2.10;99.90
5834;DHT22;2943;48.012;10.968;2022-12-07T03:54:21;2.10;99.90
5834;DHT22;2943;48.012;10.968;2022-12-07T03:56:51;1.90;99.90
5834;DHT22;2943;48.012;10.968;2022-12-07T03:59:19;1.80;99.90
5834;DHT22;2943;48.012;10.968;2022-12-07T04:01:52;1.60;99.90
5834;DHT22;2943;48.012;10.968;2022-12-07T04:04:20;1.50;99.90
5834;DHT22;2943;48.012;10.968;2022-12-07T04:06:46;1.40;99.90
5834;DHT22;2943;48.012;10.968;2022-12-07T04:09:13;1.40;99.90
5834;DHT22;2943;48.012;10.968;2022-12-07T04:11:40;1.40;99.90
5834;DHT22;2943;48.012;10.968;2022-12-07T04:14:07;1.40;99.90
5834;DHT22;2943;48.012;10.968;2022-12-07T04:16:48;1.30;99.90
5834;DHT22;2943;48.012;10.968;2022-12-07T04:19:17;1.30;99.90
5834;DHT22;2943;48.012;10.968;2022-12-07T04:21:43;1.30;99.90
5834;DHT22;2943;48.012;10.968;2022-12-07T04:24:12;1.20;99.90
5834;DHT22;2943;48.012;10.968;2022-12-07T04:26:39;1.10;99.90
5834;DHT22;2943;48.012;10.968;2022-12-07T04:29:06;1.10;99.90
5834;DHT22;2943;48.012;10.968;2022-12-07T04:31:33;1.00;99.90
5834;DHT22;2943;48.012;10.968;2022-12-07T04:34:02;1.00;99.90
5834;DHT22;2943;48.012;10.968;2022-12-07T04:36:29;0.90;99.90
5834;DHT22;2943;48.012;10.968;2022-12-07T04:38:56;0.90;99.90
5834;DHT22;2943;48.012;10.968;2022-12-07T04:41:23;0.90;99.90
5834;DHT22;2943;48.012;10.968;2022-12-07T04:43:54;0.90;99.90
5834;DHT22;2943;48.012;10.968;2022-12-07T04:46:21;0.90;99.90
5834;DHT22;2943;48.012;10.968;2022-12-07T04:48:49;0.80;99.90
5834;DHT22;2943;48.012;10.968;2022-12-07T04:51:19;0.80;99.90
5834;DHT22;2943;48.012;10.968;2022-12-07T04:53:47;0.80;99.90
5834;DHT22;2943;48.012;10.968;2022-12-07T04:56:13;0.90;99.90
5834;DHT22;2943;48.012;10.968;2022-12-07T04:58:41;0.80;99.90
5834;DHT22;2943;48.012;10.968;2022-12-07T05:01:07;0.80;99.90
5834;DHT22;2943;48.012;10.968;2022-12-07T05:03:35;0.80;99.90
5834;DHT22;2943;48.012;10.968;2022-12-07T05:06:03;0.80;99.90
5834;DHT22;2943;48.012;10.968;2022-12-07T05:08:32;0.80;99.90
5834;DHT22;2943;48.012;10.968;2022-12-07T05:10:59;0.80;99.90
5834;DHT22;2943;48.012;10.968;2022-12-07T05:13:26;0.80;99.90
5834;DHT22;2943;48.012;10.968;2022-12-07T05:15:52;0.80;99.90
5834;DHT22;2943;48.012;10.968;2022-12-07T05:18:19;0.70;99.90
5834;DHT22;2943;48.012;10.968;2022-12-07T05:20:46;0.70;99.90
5834;DHT22;2943;48.012;10.968;2022-12-07T05:23:13;0.80;99.90
5834;DHT22;2943;48.012;10.968;2022-12-07T05:25:41;0.80;99.90
5834;DHT22;2943;48.012;10.968;2022-12-07T05:28:08;0.80;99.90
5834;DHT22;2943;48.012;10.968;2022-12-07T05:30:35;0.80;99.90
5834;DHT22;2943;48.012;10.968;2022-12-07T05:33:02;0.80;99.90
5834;DHT22;2943;48.012;10.968;2022-12-07T05:35:30;0.80;99.90
5834;DHT22;2943;48.012;10.968;2022-12-07T05:37:57;0.80;99.90
5834;DHT22;2943;48.012;10.968;2022-12-07T05:40:25;0.80;99.90
5834;DHT22;2943;48.012;10.968;2022-12-07T05:42:53;0.90;99.90
5834;DHT22;2943;48.012;10.968;2022-12-07T05:45:20;0.90;99.90
5834;DHT22;2943;48.012;10.968;2022-12-07T05:47:46;0.80;99.90
5834;DHT22;2943;48.012;10.968;2022-12-07T05:50:13;0.80;99.90
5834;DHT22;2943;48.012;10.968;2022-12-07T05:52:40;0.90;99.90
5834;DHT22;2943;48.012;10.968;2022-12-07T05:55:07;0.90;99.90
5834;DHT22;2943;48.012;10.968;2022-12-07T05:57:34;0.90;99.90
5834;DHT22;2943;48.012;10.968;2022-12-07T06:00:04;0.90;99.90
5834;DHT22;2943;48.012;10.968;2022-12-07T06:02:30;0.90;99.90
5834;DHT22;2943;48.012;10.968;2022-12-07T06:04:57;0.90;99.90
5834;DHT22;2943;48.012;10.968;2022-12-07T06:07:24;1.00;99.90
5834;DHT22;2943;48.012;10.968;2022-12-07T06:09:50;1.00;99.90
5834;DHT22;2943;48.012;10.968;2022-12-07T06:12:17;1.00;99.90
5834;DHT22;2943;48.012;10.968;2022-12-07T06:15:06;1.00;99.90
5834;DHT22;2943;48.012;10.968;2022-12-07T06:17:33;1.00;99.90
5834;DHT22;2943;48.012;10.968;2022-12-07T06:19:59;1.00;99.90
5834;DHT22;2943;48.012;10.968;2022-12-07T06:22:26;1.10;99.90
5834;DHT22;2943;48.012;10.968;2022-12-07T06:24:53;1.10;99.90
5834;DHT22;2943;48.012;10.968;2022-12-07T06:27:20;1.10;99.90
5834;DHT22;2943;48.012;10.968;2022-12-07T06:29:47;1.20;99.90
5834;DHT22;2943;48.012;10.968;2022-12-07T06:32:15;1.20;99.90
5834;DHT22;2943;48.012;10.968;2022-12-07T06:34:42;1.10;99.90
5834;DHT22;2943;48.012;10.968;2022-12-07T06:37:09;1.10;99.90
5834;DHT22;2943;48.012;10.968;2022-12-07T06:39:35;1.10;99.90
5834;DHT22;2943;48.012;10.968;2022-12-07T06:42:02;1.20;99.90
5834;DHT22;2943;48.012;10.968;2022-12-07T06:44:29;1.20;99.90
5834;DHT22;2943;48.012;10.968;2022-12-07T06:46:56;1.20;99.90
5834;DHT22;2943;48.012;10.968;2022-12-07T06:49:24;1.20;99.90
5834;DHT22;2943;48.012;10.968;2022-12-07T06:51:51;1.20;99.90
5834;DHT22;2943;48.012;10.968;2022-12-07T06:54:18;1.20;99.90
5834;DHT22;2943;48.012;10.968;2022-12-07T06:56:45;1.20;99.90
5834;DHT22;2943;48.012;10.968;2022-12-07T06:59:12;1.10;99.90
5834;DHT22;2943;48.012;10.968;2022-12-07T07:01:39;1.10;99.90
5834;DHT22;2943;48.012;10.968;2022-12-07T07:04:06;1.20;99.90
5834;DHT22;2943;48.012;10.968;2022-12-07T07:06:35;1.20;99.90
5834;DHT22;2943;48.012;10.968;2022-12-07T07:09:02;1.20;99.90
5834;DHT22;2943;48.012;10.968;2022-12-07T07:11:29;1.20;99.90
5834;DHT22;2943;48.012;10.968;2022-12-07T07:13:56;1.20;99.90
5834;DHT22;2943;48.012;10.968;2022-12-07T07:16:28;1.20;99.90
5834;DHT22;2943;48.012;10.968;2022-12-07T07:18:55;1.20;99.90
5834;DHT22;2943;48.012;10.968;2022-12-07T07:21:22;1.30;99.90
5834;DHT22;2943;48.012;10.968;2022-12-07T07:23:51;1.30;99.90
5834;DHT22;2943;48.012;10.968;2022-12-07T07:26:18;1.30;99.90
5834;DHT22;2943;48.012;10.968;2022-12-07T07:28:45;1.30;99.90
5834;DHT22;2943;48.012;10.968;2022-12-07T07:31:12;1.30;99.90
5834;DHT22;2943;48.012;10.968;2022-12-07T07:33:38;1.30;99.90
5834;DHT22;2943;48.012;10.968;2022-12-07T07:36:06;1.30;99.90
5834;DHT22;2943;48.012;10.968;2022-12-07T07:38:33;1.30;99.90
5834;DHT22;2943;48.012;10.968;2022-12-07T07:41:01;1.30;99.90
5834;DHT22;2943;48.012;10.968;2022-12-07T07:43:28;1.30;99.90
5834;DHT22;2943;48.012;10.968;2022-12-07T07:45:55;1.30;99.90
5834;DHT22;2943;48.012;10.968;2022-12-07T07:48:22;1.30;99.90
5834;DHT22;2943;48.012;10.968;2022-12-07T07:50:50;1.30;99.90
5834;DHT22;2943;48.012;10.968;2022-12-07T07:53:17;1.30;99.90
5834;DHT22;2943;48.012;10.968;2022-12-07T07:55:50;1.30;99.90
5834;DHT22;2943;48.012;10.968;2022-12-07T07:58:19;1.30;99.90
5834;DHT22;2943;48.012;10.968;2022-12-07T08:00:45;1.30;99.90
5834;DHT22;2943;48.012;10.968;2022-12-07T08:03:12;1.30;99.90
5834;DHT22;2943;48.012;10.968;2022-12-07T08:05:39;1.40;99.90
5834;DHT22;2943;48.012;10.968;2022-12-07T08:08:06;1.40;99.90
5834;DHT22;2943;48.012;10.968;2022-12-07T08:10:33;1.40;99.90
5834;DHT22;2943;48.012;10.968;2022-12-07T08:13:01;1.40;99.90
5834;DHT22;2943;48.012;10.968;2022-12-07T08:15:43;1.40;99.90
5834;DHT22;2943;48.012;10.968;2022-12-07T08:18:10;1.50;99.90
5834;DHT22;2943;48.012;10.968;2022-12-07T08:20:38;1.50;99.90
5834;DHT22;2943;48.012;10.968;2022-12-07T08:23:06;1.50;99.90
5834;DHT22;2943;48.012;10.968;2022-12-07T08:25:34;1.50;99.90
5834;DHT22;2943;48.012;10.968;2022-12-07T08:28:01;1.60;99.90
5834;DHT22;2943;48.012;10.968;2022-12-07T08:30:29;1.60;99.90
5834;DHT22;2943;48.012;10.968;2022-12-07T08:32:58;1.60;99.90
5834;DHT22;2943;48.012;10.968;2022-12-07T08:35:25;1.60;99.90
5834;DHT22;2943;48.012;10.968;2022-12-07T08:37:52;1.60;99.90
5834;DHT22;2943;48.012;10.968;2022-12-07T08:40:19;1.60;99.90
5834;DHT22;2943;48.012;10.968;2022-12-07T08:42:49;1.60;99.90
5834;DHT22;2943;48.012;10.968;2022-12-07T08:45:17;1.60;99.90
5834;DHT22;2943;48.012;10.968;2022-12-07T08:47:46;1.60;99.90
5834;DHT22;2943;48.012;10.968;2022-12-07T08:50:15;1.60;99.90
5834;DHT22;2943;48.012;10.968;2022-12-07T08:52:43;1.70;99.90
5834;DHT22;2943;48.012;10.968;2022-12-07T08:55:11;1.70;99.90
5834;DHT22;2943;48.012;10.968;2022-12-07T08:57:39;1.70;99.90
5834;DHT22;2943;48.012;10.968;2022-12-07T09:00:08;1.70;99.90
5834;DHT22;2943;48.012;10.968;2022-12-07T09:02:35;1.80;99.90
5834;DHT22;2943;48.012;10.968;2022-12-07T09:05:03;1.80;99.90
5834;DHT22;2943;48.012;10.968;2022-12-07T09:07:32;1.80;99.90
5834;DHT22;2943;48.012;10.968;2022-12-07T09:10:00;1.80;99.90
5834;DHT22;2943;48.012;10.968;2022-12-07T09:12:27;1.80;99.90
5834;DHT22;2943;48.012;10.968;2022-12-07T09:14:54;1.90;99.90
5834;DHT22;2943;48.012;10.968;2022-12-07T09:17:21;1.90;99.90
5834;DHT22;2943;48.012;10.968;2022-12-07T09:19:48;1.90;99.90
5834;DHT22;2943;48.012;10.968;2022-12-07T09:22:15;1.90;99.90
5834;DHT22;2943;48.012;10.968;2022-12-07T09:24:43;1.90;99.90
5834;DHT22;2943;48.012;10.968;2022-12-07T09:27:11;1.90;99.90
5834;DHT22;2943;48.012;10.968;2022-12-07T09:29:38;2.00;99.90
5834;DHT22;2943;48.012;10.968;2022-12-07T09:32:05;2.00;99.90
5834;DHT22;2943;48.012;10.968;2022-12-07T09:34:32;2.00;99.90
5834;DHT22;2943;48.012;10.968;2022-12-07T09:37:00;2.00;99.90
5834;DHT22;2943;48.012;10.968;2022-12-07T09:39:28;2.00;99.90
5834;DHT22;2943;48.012;10.968;2022-12-07T09:41:58;2.10;99.90
5834;DHT22;2943;48.012;10.968;2022-12-07T09:44:26;2.10;99.90
5834;DHT22;2943;48.012;10.968;2022-12-07T09:46:54;2.10;99.90
5834;DHT22;2943;48.012;10.968;2022-12-07T09:49:23;2.20;99.90
5834;DHT22;2943;48.012;10.968;2022-12-07T09:52:01;2.20;99.90
5834;DHT22;2943;48.012;10.968;2022-12-07T09:54:29;2.20;99.90
5834;DHT22;2943;48.012;10.968;2022-12-07T09:56:58;2.10;99.90
5834;DHT22;2943;48.012;10.968;2022-12-07T09:59:26;2.20;99.90
5834;DHT22;2943;48.012;10.968;2022-12-07T10:01:53;2.20;99.90
5834;DHT22;2943;48.012;10.968;2022-12-07T10:04:22;2.20;99.90
5834;DHT22;2943;48.012;10.968;2022-12-07T10:06:50;2.20;99.90
5834;DHT22;2943;48.012;10.968;2022-12-07T10:09:20;2.20;99.90
5834;DHT22;2943;48.012;10.968;2022-12-07T10:12:02;2.30;99.90
5834;DHT22;2943;48.012;10.968;2022-12-07T10:14:32;2.30;99.90
5834;DHT22;2943;48.012;10.968;2022-12-07T10:16:59;2.30;99.90
5834;DHT22;2943;48.012;10.968;2022-12-07T10:19:27;2.30;99.90
5834;DHT22;2943;48.012;10.968;2022-12-07T10:22:16;2.40;99.90
5834;DHT22;2943;48.012;10.968;2022-12-07T10:24:46;2.40;99.90
5834;DHT22;2943;48.012;10.968;2022-12-07T10:27:19;2.50;99.90
5834;DHT22;2943;48.012;10.968;2022-12-07T10:29:49;2.50;99.90
5834;DHT22;2943;48.012;10.968;2022-12-07T10:32:31;2.60;99.90
5834;DHT22;2943;48.012;10.968;2022-12-07T10:35:18;2.60;99.90
5834;DHT22;2943;48.012;10.968;2022-12-07T10:37:46;2.60;99.90
5834;DHT22;2943;48.012;10.968;2022-12-07T10:40:25;2.70;99.90
5834;DHT22;2943;48.012;10.968;2022-12-07T10:43:07;2.60;99.90
5834;DHT22;2943;48.012;10.968;2022-12-07T10:46:03;2.70;99.90
5834;DHT22;2943;48.012;10.968;2022-12-07T10:48:38;2.70;99.90
5834;DHT22;2943;48.012;10.968;2022-12-07T10:51:11;2.70;99.90
5834;DHT22;2943;48.012;10.968;2022-12-07T10:53:47;2.70;99.90
5834;DHT22;2943;48.012;10.968;2022-12-07T10:56:39;2.70;99.90
5834;DHT22;2943;48.012;10.968;2022-12-07T10:59:30;2.70;99.90
5834;DHT22;2943;48.012;10.968;2022-12-07T11:02:15;2.80;99.90
5834;DHT22;2943;48.012;10.968;2022-12-07T11:04:59;2.80;99.90
5834;DHT22;2943;48.012;10.968;2022-12-07T11:07:38;2.90;99.90
5834;DHT22;2943;48.012;10.968;2022-12-07T11:10:12;2.90;99.90
5834;DHT22;2943;48.012;10.968;2022-12-07T11:12:58;3.00;99.90
5834;DHT22;2943;48.012;10.968;2022-12-07T11:15:36;3.00;99.90
5834;DHT22;2943;48.012;10.968;2022-12-07T11:18:10;3.00;99.90
5834;DHT22;2943;48.012;10.968;2022-12-07T11:20:44;3.00;99.90
5834;DHT22;2943;48.012;10.968;2022-12-07T11:23:21;3.00;99.90
5834;DHT22;2943;48.012;10.968;2022-12-07T11:25:59;3.10;99.90
5834;DHT22;2943;48.012;10.968;2022-12-07T11:28:36;3.10;99.90
5834;DHT22;2943;48.012;10.968;2022-12-07T11:31:12;3.10;99.90
5834;DHT22;2943;48.012;10.968;2022-12-07T11:33:44;3.20;99.90
5834;DHT22;2943;48.012;10.968;2022-12-07T11:36:26;3.20;99.90
5834;DHT22;2943;48.012;10.968;2022-12-07T11:39:00;3.20;99.90
5834;DHT22;2943;48.012;10.968;2022-12-07T11:41:38;3.20;99.90
5834;DHT22;2943;48.012;10.968;2022-12-07T11:44:11;3.20;99.90
5834;DHT22;2943;48.012;10.968;2022-12-07T11:46:48;3.30;99.90
5834;DHT22;2943;48.012;10.968;2022-12-07T11:49:21;3.40;99.90
5834;DHT22;2943;48.012;10.968;2022-12-07T11:51:52;3.40;99.90
5834;DHT22;2943;48.012;10.968;2022-12-07T11:54:25;3.50;99.90
5834;DHT22;2943;48.012;10.968;2022-12-07T11:56:55;3.40;99.90
5834;DHT22;2943;48.012;10.968;2022-12-07T11:59:28;3.40;99.90
5834;DHT22;2943;48.012;10.968;2022-12-07T12:02:09;3.40;99.90
5834;DHT22;2943;48.012;10.968;2022-12-07T12:04:48;3.40;99.90
5834;DHT22;2943;48.012;10.968;2022-12-07T12:07:21;3.50;99.90
5834;DHT22;2943;48.012;10.968;2022-12-07T12:09:51;3.50;99.90
5834;DHT22;2943;48.012;10.968;2022-12-07T12:12:45;3.40;99.90
5834;DHT22;2943;48.012;10.968;2022-12-07T12:15:26;3.40;99.90
5834;DHT22;2943;48.012;10.968;2022-12-07T12:18:35;3.40;99.90
5834;DHT22;2943;48.012;10.968;2022-12-07T12:21:08;3.40;99.90
5834;DHT22;2943;48.012;10.968;2022-12-07T12:23:41;3.40;99.90
5834;DHT22;2943;48.012;10.968;2022-12-07T12:26:16;3.40;99.90
5834;DHT22;2943;48.012;10.968;2022-12-07T12:28:52;3.40;99.90
5834;DHT22;2943;48.012;10.968;2022-12-07T12:31:33;3.40;99.90
5834;DHT22;2943;48.012;10.968;2022-12-07T12:34:10;3.30;99.90
5834;DHT22;2943;48.012;10.968;2022-12-07T12:36:52;3.40;99.90
5834;DHT22;2943;48.012;10.968;2022-12-07T12:39:19;3.40;99.90
5834;DHT22;2943;48.012;10.968;2022-12-07T12:41:57;3.30;99.90
5834;DHT22;2943;48.012;10.968;2022-12-07T12:45:04;3.30;99.90
5834;DHT22;2943;48.012;10.968;2022-12-07T12:47:53;3.30;99.90
5834;DHT22;2943;48.012;10.968;2022-12-07T12:50:22;3.30;99.90
5834;DHT22;2943;48.012;10.968;2022-12-07T12:53:03;3.30;99.90
5834;DHT22;2943;48.012;10.968;2022-12-07T12:55:59;3.20;99.90
5834;DHT22;2943;48.012;10.968;2022-12-07T12:58:39;3.20;99.90
5834;DHT22;2943;48.012;10.968;2022-12-07T13:01:41;3.20;99.90
5834;DHT22;2943;48.012;10.968;2022-12-07T13:07:03;3.20;99.90
5834;DHT22;2943;48.012;10.968;2022-12-07T13:09:33;3.20;99.90
5834;DHT22;2943;48.012;10.968;2022-12-07T13:12:04;3.20;99.90
5834;DHT22;2943;48.012;10.968;2022-12-07T13:14:52;3.20;99.90
5834;DHT22;2943;48.012;10.968;2022-12-07T13:17:58;3.20;99.90
5834;DHT22;2943;48.012;10.968;2022-12-07T13:20:47;3.20;99.90
5834;DHT22;2943;48.012;10.968;2022-12-07T13:23:21;3.20;99.90
5834;DHT22;2943;48.012;10.968;2022-12-07T13:25:55;3.20;99.90
5834;DHT22;2943;48.012;10.968;2022-12-07T13:28:23;3.20;99.90
5834;DHT22;2943;48.012;10.968;2022-12-07T13:31:18;3.20;99.90
5834;DHT22;2943;48.012;10.968;2022-12-07T13:33:47;3.10;99.90
5834;DHT22;2943;48.012;10.968;2022-12-07T13:36:19;3.10;99.90
5834;DHT22;2943;48.012;10.968;2022-12-07T13:38:55;3.10;99.90
5834;DHT22;2943;48.012;10.968;2022-12-07T13:41:25;3.10;99.90
5834;DHT22;2943;48.012;10.968;2022-12-07T13:43:59;3.10;99.90
5834;DHT22;2943;48.012;10.968;2022-12-07T13:46:33;3.10;99.90
5834;DHT22;2943;48.012;10.968;2022-12-07T13:49:01;3.00;99.90
5834;DHT22;2943;48.012;10.968;2022-12-07T13:51:34;3.00;99.90
5834;DHT22;2943;48.012;10.968;2022-12-07T13:54:10;2.90;99.90
5834;DHT22;2943;48.012;10.968;2022-12-07T13:56:39;2.90;99.90
5834;DHT22;2943;48.012;10.968;2022-12-07T13:59:13;2.90;99.90
5834;DHT22;2943;48.012;10.968;2022-12-07T14:01:40;2.90;99.90
5834;DHT22;2943;48.012;10.968;2022-12-07T14:04:18;2.90;99.90
5834;DHT22;2943;48.012;10.968;2022-12-07T14:06:49;2.90;99.90
5834;DHT22;2943;48.012;10.968;2022-12-07T14:09:18;2.90;99.90
5834;DHT22;2943;48.012;10.968;2022-12-07T14:11:48;2.80;99.90
5834;DHT22;2943;48.012;10.968;2022-12-07T14:14:19;2.90;99.90
5834;DHT22;2943;48.012;10.968;2022-12-07T14:16:57;2.80;99.90
5834;DHT22;2943;48.012;10.968;2022-12-07T14:19:46;2.90;99.90
5834;DHT22;2943;48.012;10.968;2022-12-07T14:22:23;2.90;99.90
5834;DHT22;2943;48.012;10.968;2022-12-07T14:24:50;2.90;99.90
5834;DHT22;2943;48.012;10.968;2022-12-07T14:27:21;2.80;99.90
5834;DHT22;2943;48.012;10.968;2022-12-07T14:29:48;2.80;99.90
5834;DHT22;2943;48.012;10.968;2022-12-07T14:32:21;2.80;99.90
5834;DHT22;2943;48.012;10.968;2022-12-07T14:34:57;2.80;99.90
5834;DHT22;2943;48.012;10.968;2022-12-07T14:37:25;2.80;99.90
5834;DHT22;2943;48.012;10.968;2022-12-07T14:39:52;2.80;99.90
5834;DHT22;2943;48.012;10.968;2022-12-07T14:42:22;2.80;99.90
5834;DHT22;2943;48.012;10.968;2022-12-07T14:44:50;2.80;99.90
5834;DHT22;2943;48.012;10.968;2022-12-07T14:47:17;2.70;99.90
5834;DHT22;2943;48.012;10.968;2022-12-07T14:49:43;2.70;99.90
5834;DHT22;2943;48.012;10.968;2022-12-07T14:52:15;2.70;99.90
5834;DHT22;2943;48.012;10.968;2022-12-07T14:54:43;2.70;99.90
5834;DHT22;2943;48.012;10.968;2022-12-07T14:57:10;2.60;99.90
5834;DHT22;2943;48.012;10.968;2022-12-07T14:59:39;2.60;99.90
5834;DHT22;2943;48.012;10.968;2022-12-07T15:02:06;2.60;99.90
5834;DHT22;2943;48.012;10.968;2022-12-07T15:04:33;2.60;99.90
5834;DHT22;2943;48.012;10.968;2022-12-07T15:07:03;2.60;99.90
5834;DHT22;2943;48.012;10.968;2022-12-07T15:09:30;2.50;99.90
5834;DHT22;2943;48.012;10.968;2022-12-07T15:11:57;2.50;99.90
5834;DHT22;2943;48.012;10.968;2022-12-07T15:14:24;2.50;99.90
5834;DHT22;2943;48.012;10.968;2022-12-07T15:16:52;2.40;99.90
5834;DHT22;2943;48.012;10.968;2022-12-07T15:19:21;2.40;99.90
5834;DHT22;2943;48.012;10.968;2022-12-07T15:21:51;2.50;99.90
5834;DHT22;2943;48.012;10.968;2022-12-07T15:24:18;2.50;99.90
5834;DHT22;2943;48.012;10.968;2022-12-07T15:26:45;2.50;99.90
5834;DHT22;2943;48.012;10.968;2022-12-07T15:29:13;2.50;99.90
5834;DHT22;2943;48.012;10.968;2022-12-07T15:31:43;2.50;99.90
5834;DHT22;2943;48.012;10.968;2022-12-07T15:34:12;2.50;99.90
5834;DHT22;2943;48.012;10.968;2022-12-07T15:36:39;2.50;99.90
5834;DHT22;2943;48.012;10.968;2022-12-07T15:39:06;2.50;99.90
5834;DHT22;2943;48.012;10.968;2022-12-07T15:41:42;2.50;99.90
5834;DHT22;2943;48.012;10.968;2022-12-07T15:44:32;2.50;99.90
5834;DHT22;2943;48.012;10.968;2022-12-07T15:47:19;2.50;99.90
5834;DHT22;2943;48.012;10.968;2022-12-07T15:49:51;2.50;99.90
5834;DHT22;2943;48.012;10.968;2022-12-07T15:52:17;2.40;99.90
5834;DHT22;2943;48.012;10.968;2022-12-07T15:54:44;2.40;99.90
5834;DHT22;2943;48.012;10.968;2022-12-07T15:57:12;2.40;99.90
5834;DHT22;2943;48.012;10.968;2022-12-07T15:59:39;2.40;99.90
5834;DHT22;2943;48.012;10.968;2022-12-07T16:02:08;2.30;99.90
5834;DHT22;2943;48.012;10.968;2022-12-07T16:04:35;2.30;99.90
5834;DHT22;2943;48.012;10.968;2022-12-07T16:07:04;2.30;99.90
5834;DHT22;2943;48.012;10.968;2022-12-07T16:09:31;2.30;99.90
5834;DHT22;2943;48.012;10.968;2022-12-07T16:11:58;2.30;99.90
5834;DHT22;2943;48.012;10.968;2022-12-07T16:14:25;2.20;99.90
5834;DHT22;2943;48.012;10.968;2022-12-07T16:16:52;2.20;99.90
5834;DHT22;2943;48.012;10.968;2022-12-07T16:19:20;2.20;99.90
5834;DHT22;2943;48.012;10.968;2022-12-07T16:21:47;2.20;99.90
5834;DHT22;2943;48.012;10.968;2022-12-07T16:24:15;2.20;99.90
5834;DHT22;2943;48.012;10.968;2022-12-07T16:26:44;2.10;99.90
5834;DHT22;2943;48.012;10.968;2022-12-07T16:29:12;2.10;99.90